Wednesday, February 22, 2017, 12:26 PM EST

KIPT, Williamsport-lycoming County

Location: Montoursville, PA, United States Lat: 41.25
Local Time: 12:26 PM EST (17:26 GMT) Lon: -76.917
Time Zone: US/Eastern Elev: 528 ft

Show me the last for .
Show Decoded

2017-02-22 11:54 METAR KIPT 221654Z 12004KT 10SM OVC090 10/02 A2995 RMK AO2 SLP144 T01000017 =
2017-02-22 10:54 METAR KIPT 221554Z 14003KT 10SM OVC090 08/01 A2998 RMK AO2 SLP153 T00830011 =
2017-02-22 09:54 METAR KIPT 221454Z 00000KT 10SM OVC090 07/01 A2998 RMK AO2 SLP155 T00720011
                 58005 =
2017-02-22 08:54 METAR KIPT 221354Z 00000KT 10SM FEW070 OVC095 07/01 A3000 RMK AO2 SLP160
                 T00670006 =
2017-02-22 07:54 METAR KIPT 221254Z 13003KT 10SM BKN047 BKN055 OVC095 07/00 A3001 RMK AO2 SLP164
                 T00670000 =
2017-02-22 06:54 METAR KIPT 221154Z 12003KT 10SM BKN050 OVC100 06/00 A3000 RMK AO2 SLP161
                 T00610000 10078 20061 53002 =
2017-02-22 05:54 METAR KIPT 221054Z AUTO 12003KT 10SM OVC100 07/00 A2999 RMK AO2 SLP158 T00670000
                 TSNO =
2017-02-22 04:54 METAR KIPT 220954Z AUTO 00000KT 10SM OVC100 07/M01 A2999 RMK AO2 SLP158
                 T00721006 TSNO =
2017-02-21 15:54 METAR KIPT 212054Z VRB03KT 10SM CLR 09/M06 A3012 RMK AO2 SLP202 T00941056 56023
                 =
2017-02-21 14:54 METAR KIPT 211954Z VRB03KT 10SM CLR 09/M07 A3013 RMK AO2 SLP208 T00891067 =
2017-02-21 13:54 METAR KIPT 211854Z 09007KT 050V120 10SM CLR 08/M08 A3016 RMK AO2 SLP216
                 T00831078 =
2017-02-21 12:54 METAR KIPT 211754Z VRB03G21KT 10SM CLR 08/M09 A3019 RMK AO2 SLP226 T00831089
                 10089 21011 58030 =

Support USWX by starting your Amazon purchase here.